Bolila Airport


Codes: FZGC/
Name: Bolila Airport
City: Bolila
Country: Congo [DRC]
Elevation: 1279 ft.

Photos at Bolila Airport


   Photos courtesy of SpottingLog. You can add your own sightings and photos by signing up for a free trial today.



No photos found.

Weather at Bolila Airport


Time (UTC)DescriptionTempratureWindCloud coverageVisibilityPressureHumidity
23-May-2024 21:00Broken Clouds23°C2 mph, S53%10000m1011hPa88%
24-May-2024 00:00Broken Clouds23°C2 mph, NW58%10000m1011hPa88%
24-May-2024 03:00Overcast Clouds22°C2 mph, NW100%10000m1011hPa91%
24-May-2024 06:00Overcast Clouds25°C2 mph, NW99%10000m1013hPa80%
24-May-2024 09:00Broken Clouds31°C2 mph, E76%10000m1013hPa53%
24-May-2024 12:00Light Rain29°C2 mph, E66%10000m1010hPa64%
24-May-2024 15:00Moderate Rain26°C2 mph, NW79%6300m1010hPa92%
24-May-2024 18:00Light Rain23°C0 mph, NE87%10000m1011hPa95%
24-May-2024 21:00Overcast Clouds23°C0 mph, E97%10000m1012hPa96%
25-May-2024 00:00Light Rain22°C2 mph, SW93%10000m1012hPa98%
25-May-2024 03:00Overcast Clouds22°C0 mph, N88%10000m1012hPa97%
25-May-2024 06:00Light Rain23°C2 mph, N92%10000m1014hPa95%
25-May-2024 09:00Overcast Clouds27°C4 mph, NW91%10000m1014hPa72%
25-May-2024 12:00Overcast Clouds29°C2 mph, SW94%10000m1011hPa64%
25-May-2024 15:00Broken Clouds29°C2 mph, SW69%10000m1009hPa62%
25-May-2024 18:00Light Rain23°C4 mph, N60%10000m1012hPa96%
25-May-2024 21:00Light Rain22°C2 mph, N85%10000m1013hPa97%
26-May-2024 00:00Overcast Clouds22°C0 mph, NW92%10000m1012hPa96%
26-May-2024 03:00Overcast Clouds22°C0 mph, SW100%10000m1013hPa96%
26-May-2024 06:00Overcast Clouds23°C2 mph, NE100%10000m1014hPa95%
26-May-2024 09:00Overcast Clouds29°C2 mph, E100%10000m1015hPa61%
26-May-2024 12:00Overcast Clouds33°C2 mph, E99%10000m1011hPa46%
26-May-2024 15:00Overcast Clouds31°C2 mph, SW91%10000m1010hPa53%
26-May-2024 18:00Light Rain25°C2 mph, SE67%10000m1011hPa81%
26-May-2024 21:00Light Rain23°C2 mph, S84%10000m1013hPa95%
27-May-2024 00:00Light Rain22°C0 mph, SW75%10000m1012hPa96%
27-May-2024 03:00Broken Clouds22°C0 mph, SE77%10000m1012hPa97%
27-May-2024 06:00Broken Clouds24°C0 mph, E78%10000m1014hPa91%
27-May-2024 09:00Broken Clouds32°C2 mph, E82%10000m1013hPa54%
27-May-2024 12:00Overcast Clouds34°C2 mph, SE91%10000m1010hPa44%
27-May-2024 15:00Overcast Clouds31°C2 mph, SE100%10000m1009hPa57%
27-May-2024 18:00Overcast Clouds26°C4 mph, SE97%10000m1009hPa71%
27-May-2024 21:00Light Rain23°C0 mph, SW54%10000m1012hPa87%
28-May-2024 00:00Light Rain23°C2 mph, S43%10000m1011hPa92%
28-May-2024 03:00Light Rain22°C0 mph, NW28%10000m1012hPa94%
28-May-2024 06:00Light Rain24°C2 mph, NW25%10000m1014hPa88%
28-May-2024 09:00Scattered Clouds33°C2 mph, SE44%10000m1013hPa49%
28-May-2024 12:00Broken Clouds36°C2 mph, SE72%10000m1009hPa38%
28-May-2024 15:00Light Rain31°C2 mph, NE100%10000m1008hPa57%
28-May-2024 18:00Light Rain25°C2 mph, SW97%10000m1009hPa81%